createdAt,value
2019-01-11T00:02:02.540Z,0.20
2019-01-11T00:05:06.160Z,0.20
2019-01-11T00:08:09.631Z,0.30
2019-01-11T00:11:13.064Z,0.30
2019-01-11T00:14:16.505Z,0.30
2019-01-11T00:17:19.970Z,0.30
2019-01-11T00:20:23.404Z,0.30
2019-01-11T00:23:26.842Z,0.30
2019-01-11T00:26:30.272Z,0.30
2019-01-11T00:29:33.723Z,0.20
2019-01-11T00:32:37.189Z,0.30
2019-01-11T00:35:40.595Z,0.30
2019-01-11T00:38:44.033Z,0.30
2019-01-11T00:41:47.472Z,0.30
2019-01-11T00:44:50.896Z,0.30
2019-01-11T00:47:54.396Z,0.30
2019-01-11T00:50:57.808Z,0.30
2019-01-11T00:54:01.264Z,0.40
2019-01-11T00:57:04.844Z,0.30
2019-01-11T01:00:17.745Z,0.30
2019-01-11T01:03:21.178Z,0.30
2019-01-11T01:06:24.604Z,0.30
2019-01-11T01:09:28.024Z,0.40
2019-01-11T01:12:31.534Z,0.30
2019-01-11T01:15:34.968Z,0.30
2019-01-11T01:18:38.455Z,0.30
2019-01-11T01:21:41.884Z,0.40
2019-01-11T01:24:45.337Z,0.30
2019-01-11T01:27:48.777Z,0.40
2019-01-11T01:30:52.196Z,0.40
2019-01-11T01:33:55.617Z,0.40
2019-01-11T01:36:59.081Z,0.40
2019-01-11T01:40:02.624Z,0.30
2019-01-11T01:43:06.033Z,0.30
2019-01-11T01:46:09.496Z,0.30
2019-01-11T01:49:12.932Z,0.30
2019-01-11T01:52:16.365Z,0.30
2019-01-11T01:55:19.799Z,0.30
2019-01-11T01:58:23.269Z,0.30
2019-01-11T02:01:26.708Z,0.40
2019-01-11T02:04:30.136Z,0.40
2019-01-11T02:07:33.568Z,0.40
2019-01-11T02:10:36.980Z,0.50
2019-01-11T02:13:40.425Z,0.50
2019-01-11T02:16:43.837Z,0.50
2019-01-11T02:19:47.271Z,0.50
2019-01-11T02:22:50.726Z,0.50
2019-01-11T02:25:54.176Z,0.50
2019-01-11T02:28:57.572Z,0.50
2019-01-11T02:32:01.014Z,0.50
2019-01-11T02:35:05.081Z,0.50
2019-01-11T02:38:08.497Z,0.50
2019-01-11T02:41:11.948Z,0.50
2019-01-11T02:44:15.357Z,0.50
2019-01-11T02:47:18.797Z,0.60
2019-01-11T02:50:22.222Z,0.50
2019-01-11T02:53:25.657Z,0.60
2019-01-11T02:56:29.102Z,0.50
2019-01-11T02:59:32.605Z,0.60
2019-01-11T03:02:36.025Z,0.60
2019-01-11T03:05:39.466Z,0.60
2019-01-11T03:08:42.886Z,0.60
2019-01-11T03:11:46.318Z,0.60
2019-01-11T03:14:49.749Z,0.60
2019-01-11T03:17:53.160Z,0.60
2019-01-11T03:20:56.677Z,0.60
2019-01-11T03:24:00.097Z,0.60
2019-01-11T03:27:03.530Z,0.60
2019-01-11T03:30:12.754Z,0.60
2019-01-11T03:33:16.186Z,0.60
2019-01-11T03:36:19.623Z,0.60
2019-01-11T03:39:23.104Z,0.60
2019-01-11T03:42:26.609Z,0.60
2019-01-11T03:45:30.157Z,0.60
2019-01-11T03:48:33.641Z,0.60
2019-01-11T03:51:37.072Z,0.60
2019-01-11T03:54:40.497Z,0.70
2019-01-11T03:57:44.093Z,0.70
2019-01-11T04:00:47.515Z,0.60
2019-01-11T04:03:50.951Z,0.60
2019-01-11T04:06:54.361Z,0.60
2019-01-11T04:09:57.888Z,0.60
2019-01-11T04:13:01.300Z,0.60
2019-01-11T04:16:04.740Z,0.60
2019-01-11T04:19:08.628Z,0.70
2019-01-11T04:22:13.703Z,0.70
2019-01-11T04:25:18.771Z,0.60
2019-01-11T04:28:22.199Z,0.60
2019-01-11T04:31:25.621Z,0.70
2019-01-11T04:34:30.471Z,0.70
2019-01-11T04:37:33.982Z,0.70
2019-01-11T04:40:37.416Z,0.70
2019-01-11T04:43:40.853Z,0.70
2019-01-11T04:46:44.288Z,0.70
2019-01-11T04:49:47.705Z,0.70
2019-01-11T04:52:51.157Z,0.60
2019-01-11T04:55:54.601Z,0.60
2019-01-11T04:58:58.010Z,0.60
2019-01-11T05:02:01.525Z,0.50
2019-01-11T05:05:06.176Z,0.50
2019-01-11T05:08:09.738Z,0.50
2019-01-11T05:11:14.688Z,0.60
2019-01-11T05:14:18.192Z,0.60
2019-01-11T05:17:21.605Z,0.60
2019-01-11T05:20:25.036Z,0.60
2019-01-11T05:23:28.459Z,0.50
2019-01-11T05:26:31.918Z,0.50
2019-01-11T05:29:35.333Z,0.50
2019-01-11T05:32:38.771Z,0.50
2019-01-11T05:35:42.187Z,0.50
2019-01-11T05:38:45.632Z,0.50
2019-01-11T05:41:49.057Z,0.50
2019-01-11T05:44:52.496Z,0.50
2019-01-11T05:47:55.909Z,0.50
2019-01-11T05:50:59.362Z,0.50
2019-01-11T05:54:02.794Z,0.50
2019-01-11T05:57:06.215Z,0.50
2019-01-11T06:00:11.003Z,0.50
2019-01-11T06:03:14.417Z,0.50
2019-01-11T06:06:17.858Z,0.40
2019-01-11T06:09:21.283Z,0.40
2019-01-11T06:12:24.729Z,0.50
2019-01-11T06:15:28.144Z,0.40
2019-01-11T06:18:31.852Z,0.40
2019-01-11T06:21:35.268Z,0.40
2019-01-11T06:24:38.700Z,0.40
2019-01-11T06:27:42.111Z,0.40
2019-01-11T06:30:45.539Z,0.40
2019-01-11T06:33:48.967Z,0.30
2019-01-11T06:36:52.404Z,0.30
2019-01-11T06:39:55.849Z,0.30
2019-01-11T06:43:03.474Z,0.20
2019-01-11T06:46:04.518Z,0.20
2019-01-11T06:49:07.953Z,0.30
2019-01-11T06:52:11.368Z,0.30
2019-01-11T06:55:14.803Z,0.30
2019-01-11T06:58:18.232Z,0.30
2019-01-11T07:01:21.674Z,0.30
2019-01-11T07:04:25.080Z,0.30
2019-01-11T07:07:28.525Z,0.30
2019-01-11T07:10:31.944Z,0.30
2019-01-11T07:13:35.402Z,0.30
2019-01-11T07:16:38.816Z,0.30
2019-01-11T07:19:42.263Z,0.30
2019-01-11T07:22:45.712Z,0.30
2019-01-11T07:25:49.121Z,0.40
2019-01-11T07:28:52.564Z,0.40
2019-01-11T07:31:57.620Z,0.40
2019-01-11T07:35:01.324Z,0.40
2019-01-11T07:38:04.748Z,0.40
2019-01-11T07:41:08.344Z,0.40
2019-01-11T07:44:11.806Z,0.40
2019-01-11T07:47:15.268Z,0.40
2019-01-11T07:50:18.704Z,0.40
2019-01-11T07:53:22.201Z,0.40
2019-01-11T07:56:25.645Z,0.40
2019-01-11T07:59:29.239Z,0.40
2019-01-11T08:02:32.756Z,0.50
2019-01-11T08:05:36.169Z,0.50
2019-01-11T08:08:39.613Z,0.50
2019-01-11T08:11:43.042Z,0.50
2019-01-11T08:14:46.486Z,0.50
2019-01-11T08:17:49.894Z,0.50
2019-01-11T08:20:56.379Z,0.50
2019-01-11T08:23:58.508Z,0.50
2019-01-11T08:27:01.943Z,0.60
2019-01-11T08:30:08.455Z,0.50
2019-01-11T08:33:18.342Z,0.60
2019-01-11T08:36:17.029Z,0.60
2019-01-11T08:39:20.444Z,0.60
2019-01-11T08:42:23.898Z,0.70
2019-01-11T08:45:27.309Z,0.70
2019-01-11T08:48:30.757Z,0.70
2019-01-11T08:51:34.172Z,0.80
2019-01-11T08:54:37.620Z,0.70
2019-01-11T08:57:41.437Z,0.80
2019-01-11T09:00:45.123Z,0.80
2019-01-11T09:03:48.556Z,0.80
2019-01-11T09:06:52.010Z,0.80
2019-01-11T09:09:55.462Z,0.80
2019-01-11T09:12:58.869Z,0.80
2019-01-11T09:16:02.458Z,0.80
2019-01-11T09:19:05.921Z,0.80
2019-01-11T09:22:09.663Z,0.90
2019-01-11T09:25:13.359Z,0.90
2019-01-11T09:28:18.944Z,1.00
2019-01-11T09:31:22.640Z,1.00
2019-01-11T09:34:26.327Z,1.00
2019-01-11T09:37:29.971Z,1.00
2019-01-11T09:40:33.460Z,1.00
2019-01-11T09:43:36.876Z,1.00
2019-01-11T09:46:40.325Z,1.10
2019-01-11T09:49:43.735Z,1.00
2019-01-11T09:52:47.177Z,1.10
2019-01-11T09:55:50.584Z,1.10
2019-01-11T09:58:54.028Z,1.10
2019-01-11T10:02:15.344Z,1.10
2019-01-11T10:05:18.769Z,1.10
2019-01-11T10:08:22.216Z,1.10
2019-01-11T10:11:25.624Z,1.10
2019-01-11T10:14:29.076Z,1.20
2019-01-11T10:17:32.488Z,1.20
2019-01-11T10:20:35.929Z,1.20
2019-01-11T10:23:39.467Z,1.30
2019-01-11T10:26:42.884Z,1.30
2019-01-11T10:29:46.332Z,1.40
2019-01-11T10:32:50.000Z,1.40
2019-01-11T10:35:53.448Z,1.40
2019-01-11T10:38:56.889Z,1.40
2019-01-11T10:42:00.356Z,1.40
2019-01-11T10:45:05.202Z,1.40
2019-01-11T10:48:08.737Z,1.40
2019-01-11T10:51:12.148Z,1.40
2019-01-11T10:54:19.937Z,1.30
2019-01-11T10:57:23.353Z,1.40
2019-01-11T11:00:26.876Z,1.40
2019-01-11T11:03:30.291Z,1.40
2019-01-11T11:06:33.745Z,1.40
2019-01-11T11:09:37.197Z,1.30
2019-01-11T11:12:40.628Z,1.30
2019-01-11T11:15:45.717Z,1.40
2019-01-11T11:18:49.140Z,1.40
2019-01-11T11:21:52.591Z,1.40
2019-01-11T11:24:56.316Z,1.50
2019-01-11T11:27:59.738Z,1.50
2019-01-11T11:31:03.435Z,1.50
2019-01-11T11:34:06.853Z,1.50
2019-01-11T11:37:11.944Z,1.50
2019-01-11T11:40:15.541Z,1.60
2019-01-11T11:43:18.973Z,1.60
2019-01-11T11:46:22.424Z,1.60
2019-01-11T11:49:25.862Z,1.70
2019-01-11T11:52:29.308Z,1.60
2019-01-11T11:55:32.745Z,1.70
2019-01-11T11:58:36.245Z,1.70
2019-01-11T12:01:39.643Z,1.70
2019-01-11T12:04:43.083Z,1.70
2019-01-11T12:07:46.519Z,1.80
2019-01-11T12:10:49.976Z,1.90
2019-01-11T12:13:53.390Z,1.90
2019-01-11T12:16:56.838Z,1.90
2019-01-11T12:20:00.261Z,1.90
2019-01-11T12:23:04.091Z,1.90
2019-01-11T12:26:08.013Z,2.00
2019-01-11T12:29:12.772Z,2.00
2019-01-11T12:32:19.639Z,2.00
2019-01-11T12:35:21.566Z,2.00
2019-01-11T12:38:25.009Z,1.90
2019-01-11T12:41:28.457Z,1.90
2019-01-11T12:44:31.877Z,2.00
2019-01-11T12:47:35.337Z,2.00
2019-01-11T12:50:38.752Z,2.10
2019-01-11T12:53:42.212Z,2.10
2019-01-11T12:56:45.629Z,2.00
2019-01-11T12:59:49.072Z,2.10
2019-01-11T13:02:52.498Z,2.20
2019-01-11T13:05:55.959Z,2.20
2019-01-11T13:08:59.376Z,2.10
2019-01-11T13:12:02.833Z,2.20
2019-01-11T13:15:09.452Z,2.20
2019-01-11T13:18:12.906Z,2.30
2019-01-11T13:21:16.337Z,2.20
2019-01-11T13:24:19.784Z,2.30
2019-01-11T13:27:23.200Z,2.20
2019-01-11T13:30:26.637Z,2.20
2019-01-11T13:33:30.084Z,2.20
2019-01-11T13:36:33.520Z,2.20
2019-01-11T13:39:37.979Z,2.30
2019-01-11T13:42:41.498Z,2.20
2019-01-11T13:45:44.942Z,2.20
2019-01-11T13:48:48.365Z,2.30
2019-01-11T13:51:51.810Z,2.30
2019-01-11T13:54:55.240Z,2.20
2019-01-11T13:57:58.684Z,2.20
2019-01-11T14:01:02.099Z,2.20
2019-01-11T14:04:05.621Z,2.30
2019-01-11T14:07:09.037Z,2.30
2019-01-11T14:10:12.506Z,2.30
2019-01-11T14:13:15.929Z,2.30
2019-01-11T14:16:19.434Z,2.40
2019-01-11T14:19:22.853Z,2.40
2019-01-11T14:22:26.309Z,2.40
2019-01-11T14:25:29.731Z,2.40
2019-01-11T14:28:34.000Z,2.40
2019-01-11T14:31:37.414Z,2.40
2019-01-11T14:34:40.839Z,2.40
2019-01-11T14:37:44.259Z,2.40
2019-01-11T14:40:47.712Z,2.40
2019-01-11T14:43:51.292Z,2.40
2019-01-11T14:46:54.804Z,2.40
2019-01-11T14:49:58.301Z,2.50
2019-01-11T14:53:01.764Z,2.40
2019-01-11T14:56:05.292Z,2.50
2019-01-11T14:59:08.712Z,2.50
2019-01-11T15:02:12.150Z,2.50
2019-01-11T15:05:16.744Z,2.50
2019-01-11T15:08:20.283Z,2.50
2019-01-11T15:11:23.694Z,2.50
2019-01-11T15:14:27.135Z,2.50
2019-01-11T15:17:30.588Z,2.50
2019-01-11T15:20:34.002Z,2.50
2019-01-11T15:23:37.466Z,2.50
2019-01-11T15:26:40.897Z,2.50
2019-01-11T15:29:44.342Z,2.60
2019-01-11T15:32:47.903Z,2.60
2019-01-11T15:35:51.355Z,2.60
2019-01-11T15:38:54.777Z,2.70
2019-01-11T15:41:58.252Z,2.70
2019-01-11T15:45:01.682Z,2.70
2019-01-11T15:48:05.141Z,2.70
2019-01-11T15:51:11.248Z,2.70
2019-01-11T15:54:14.707Z,2.80
2019-01-11T15:57:22.883Z,2.70
2019-01-11T16:00:27.275Z,2.70
2019-01-11T16:03:30.734Z,2.80
2019-01-11T16:06:34.362Z,2.80
2019-01-11T16:09:55.911Z,2.80
2019-01-11T16:12:59.519Z,2.80
2019-01-11T16:16:05.468Z,2.90
2019-01-11T16:19:08.927Z,2.90
2019-01-11T16:22:12.340Z,3.00
2019-01-11T16:25:15.868Z,3.00
2019-01-11T16:28:19.357Z,3.00
2019-01-11T16:31:22.812Z,3.10
2019-01-11T16:34:26.236Z,3.10
2019-01-11T16:37:29.690Z,3.20
2019-01-11T16:40:33.113Z,3.20
2019-01-11T16:43:36.821Z,3.30
2019-01-11T16:46:40.272Z,3.30
2019-01-11T16:49:43.693Z,3.40
2019-01-11T16:52:47.143Z,3.50
2019-01-11T16:55:50.601Z,3.60
2019-01-11T16:58:54.009Z,3.60
2019-01-11T17:01:57.478Z,3.70
2019-01-11T17:05:00.890Z,3.70
2019-01-11T17:08:04.486Z,3.80
2019-01-11T17:11:08.017Z,3.80
2019-01-11T17:14:11.425Z,3.90
2019-01-11T17:17:14.923Z,3.90
2019-01-11T17:20:18.412Z,3.90
2019-01-11T17:23:21.864Z,3.90
2019-01-11T17:26:25.285Z,4.00
2019-01-11T17:29:28.724Z,4.00
2019-01-11T17:32:32.209Z,4.00
2019-01-11T17:35:35.673Z,4.10
2019-01-11T17:38:39.118Z,4.10
2019-01-11T17:41:42.535Z,4.10
2019-01-11T17:44:45.968Z,4.10
2019-01-11T17:47:49.391Z,4.10
2019-01-11T17:50:52.824Z,4.10
2019-01-11T17:53:56.279Z,4.10
2019-01-11T17:56:59.732Z,4.10
2019-01-11T18:00:03.425Z,4.10
2019-01-11T18:03:06.864Z,4.20
2019-01-11T18:06:10.302Z,4.20
2019-01-11T18:09:13.736Z,4.20
2019-01-11T18:12:20.132Z,4.20
2019-01-11T18:15:22.489Z,4.10
2019-01-11T18:18:25.903Z,4.20
2019-01-11T18:21:29.375Z,4.20
2019-01-11T18:24:32.820Z,4.20
2019-01-11T18:27:36.237Z,4.20
2019-01-11T18:30:39.685Z,4.30
2019-01-11T18:33:43.096Z,4.30
2019-01-11T18:36:47.545Z,4.30
2019-01-11T18:39:57.602Z,4.30
2019-01-11T18:42:56.166Z,4.40
2019-01-11T18:45:59.596Z,4.30
2019-01-11T18:49:04.334Z,4.40
2019-01-11T18:52:07.933Z,4.50
2019-01-11T18:55:11.517Z,4.50
2019-01-11T18:58:14.925Z,4.50
2019-01-11T19:01:18.361Z,4.50
2019-01-11T19:04:21.768Z,4.40
2019-01-11T19:07:25.212Z,4.50
2019-01-11T19:10:28.663Z,4.50
2019-01-11T19:13:32.161Z,4.50
2019-01-11T19:16:35.578Z,4.60
2019-01-11T19:19:39.019Z,4.60
2019-01-11T19:22:42.461Z,4.60
2019-01-11T19:25:45.894Z,4.60
2019-01-11T19:28:49.337Z,4.60
2019-01-11T19:31:52.765Z,4.60
2019-01-11T19:34:56.193Z,4.60
2019-01-11T19:37:59.625Z,4.60
2019-01-11T19:41:03.068Z,4.60
2019-01-11T19:44:06.769Z,4.60
2019-01-11T19:47:10.187Z,4.60
2019-01-11T19:50:19.020Z,4.70
2019-01-11T19:53:27.574Z,4.60
2019-01-11T19:56:29.398Z,4.60
2019-01-11T19:59:32.828Z,4.60
2019-01-11T20:02:36.257Z,4.70
2019-01-11T20:05:39.856Z,4.60
2019-01-11T20:08:43.266Z,4.60
2019-01-11T20:11:46.714Z,4.60
2019-01-11T20:14:50.150Z,4.60
2019-01-11T20:17:53.696Z,4.60
2019-01-11T20:20:57.104Z,4.60
2019-01-11T20:24:00.562Z,4.60
2019-01-11T20:27:04.041Z,4.60
2019-01-11T20:30:16.005Z,4.60
2019-01-11T20:33:19.488Z,4.60
2019-01-11T20:36:22.925Z,4.60
2019-01-11T20:39:26.369Z,4.60
2019-01-11T20:42:29.771Z,4.60
2019-01-11T20:45:33.217Z,4.60
2019-01-11T20:48:36.741Z,4.60
2019-01-11T20:51:40.197Z,4.60
2019-01-11T20:54:43.641Z,4.60
2019-01-11T20:57:47.051Z,4.50
2019-01-11T21:00:50.532Z,4.60
2019-01-11T21:03:53.989Z,4.50
2019-01-11T21:07:00.138Z,4.50
2019-01-11T21:10:04.887Z,4.50
2019-01-11T21:13:08.322Z,4.50
2019-01-11T21:16:11.765Z,4.50
2019-01-11T21:19:15.192Z,4.50
2019-01-11T21:22:18.633Z,4.50
2019-01-11T21:25:22.123Z,4.50
2019-01-11T21:28:25.582Z,4.50
2019-01-11T21:31:28.996Z,4.50
2019-01-11T21:34:32.442Z,4.50
2019-01-11T21:37:35.941Z,4.50
2019-01-11T21:40:39.523Z,4.50
2019-01-11T21:43:42.947Z,4.50
2019-01-11T21:46:46.390Z,4.50
2019-01-11T21:49:49.805Z,4.50
2019-01-11T21:52:53.320Z,4.50
2019-01-11T21:55:56.751Z,4.50
2019-01-11T21:59:00.188Z,4.40
2019-01-11T22:02:03.701Z,4.50
2019-01-11T22:05:07.252Z,4.50
2019-01-11T22:08:10.708Z,4.50
2019-01-11T22:11:14.127Z,4.50
2019-01-11T22:14:17.584Z,4.50
2019-01-11T22:17:21.016Z,4.60
2019-01-11T22:20:24.448Z,4.60
2019-01-11T22:23:27.897Z,4.60
2019-01-11T22:26:31.349Z,4.60
2019-01-11T22:29:34.840Z,4.50
2019-01-11T22:32:38.291Z,4.50
2019-01-11T22:35:41.708Z,4.50
2019-01-11T22:38:45.157Z,4.50
2019-01-11T22:41:48.569Z,4.60
2019-01-11T22:44:52.003Z,4.60
2019-01-11T22:47:55.455Z,4.60
2019-01-11T22:51:00.576Z,4.60
2019-01-11T22:54:10.267Z,4.60
2019-01-11T22:57:09.287Z,4.60
2019-01-11T23:00:26.197Z,4.60
2019-01-11T23:03:32.681Z,4.60
2019-01-11T23:06:39.183Z,4.70
2019-01-11T23:09:43.213Z,4.70
2019-01-11T23:12:48.777Z,4.70
2019-01-11T23:15:52.358Z,4.70
2019-01-11T23:18:56.608Z,4.70
2019-01-11T23:22:00.057Z,4.70
2019-01-11T23:25:04.232Z,4.80
2019-01-11T23:28:07.680Z,4.80
2019-01-11T23:31:11.085Z,4.70
2019-01-11T23:34:14.525Z,4.70
2019-01-11T23:37:17.963Z,4.80
2019-01-11T23:40:21.376Z,4.70
2019-01-11T23:43:24.816Z,4.70
2019-01-11T23:46:28.236Z,4.80
2019-01-11T23:49:31.665Z,4.80
2019-01-11T23:52:35.081Z,4.80
2019-01-11T23:55:38.534Z,4.80
2019-01-11T23:58:41.940Z,4.70
